createdAt,value
2023-04-17T00:02:04.651Z,11.24
2023-04-17T00:04:33.020Z,11.20
2023-04-17T00:07:03.574Z,11.22
2023-04-17T00:09:31.487Z,11.31
2023-04-17T00:11:59.423Z,11.24
2023-04-17T00:14:27.629Z,11.09
2023-04-17T00:16:55.398Z,11.08
2023-04-17T00:19:23.330Z,11.12
2023-04-17T00:21:51.148Z,11.13
2023-04-17T00:24:20.277Z,11.12
2023-04-17T00:26:48.017Z,11.16
2023-04-17T00:29:15.801Z,11.10
2023-04-17T00:31:43.579Z,11.11
2023-04-17T00:34:11.557Z,11.15
2023-04-17T00:36:39.335Z,11.13
2023-04-17T00:39:07.069Z,11.19
2023-04-17T00:41:36.464Z,11.09
2023-04-17T00:44:04.208Z,11.12
2023-04-17T00:46:32.383Z,11.05
2023-04-17T00:49:01.048Z,11.03
2023-04-17T00:51:29.133Z,10.97
2023-04-17T00:53:57.217Z,10.97
2023-04-17T00:56:26.143Z,10.94
2023-04-17T00:58:56.744Z,10.93
2023-04-17T01:01:24.501Z,10.91
2023-04-17T01:03:52.323Z,10.81
2023-04-17T01:06:20.657Z,10.83
2023-04-17T01:08:48.453Z,10.85
2023-04-17T01:11:16.128Z,10.85
2023-04-17T01:13:47.301Z,10.74
2023-04-17T01:16:16.827Z,10.69
2023-04-17T01:18:44.941Z,10.79
2023-04-17T01:21:12.999Z,10.84
2023-04-17T01:23:46.333Z,10.88
2023-04-17T01:26:18.704Z,10.79
2023-04-17T01:28:51.703Z,10.96
2023-04-17T01:31:19.485Z,10.75
2023-04-17T01:33:47.463Z,10.79
2023-04-17T01:36:15.341Z,10.81
2023-04-17T01:38:43.410Z,10.82
2023-04-17T01:41:11.192Z,10.86
2023-04-17T01:43:42.286Z,10.93
2023-04-17T01:46:10.131Z,10.89
2023-04-17T01:48:38.316Z,10.90
2023-04-17T01:51:07.052Z,10.88
2023-04-17T01:53:35.710Z,10.85
2023-04-17T01:56:03.696Z,10.82
2023-04-17T01:58:31.857Z,10.66
2023-04-17T02:01:01.367Z,10.66
2023-04-17T02:03:29.314Z,10.66
2023-04-17T02:05:57.164Z,10.59
2023-04-17T02:08:25.317Z,10.52
2023-04-17T02:10:53.168Z,10.54
2023-04-17T02:13:20.997Z,10.51
2023-04-17T02:15:48.912Z,10.50
2023-04-17T02:18:18.204Z,10.54
2023-04-17T02:20:45.897Z,10.42
2023-04-17T02:23:13.701Z,10.43
2023-04-17T02:25:42.009Z,10.36
2023-04-17T02:28:09.810Z,10.44
2023-04-17T02:30:37.833Z,10.37
2023-04-17T02:33:05.637Z,10.39
2023-04-17T02:35:35.004Z,10.38
2023-04-17T02:38:02.706Z,10.44
2023-04-17T02:40:30.531Z,10.43
2023-04-17T02:42:58.290Z,10.45
2023-04-17T02:45:26.193Z,10.51
2023-04-17T02:47:53.947Z,10.53
2023-04-17T02:50:21.967Z,10.55
2023-04-17T02:52:51.101Z,10.51
2023-04-17T02:55:19.470Z,10.47
2023-04-17T02:57:47.250Z,10.52
2023-04-17T03:00:15.434Z,10.47
2023-04-17T03:02:43.415Z,10.42
2023-04-17T03:05:12.018Z,10.39
2023-04-17T03:07:39.778Z,10.46
2023-04-17T03:10:10.099Z,10.49
2023-04-17T03:12:38.273Z,10.52
2023-04-17T03:15:08.867Z,10.54
2023-04-17T03:17:36.940Z,10.54
2023-04-17T03:20:07.405Z,10.49
2023-04-17T03:22:35.527Z,10.52
2023-04-17T03:25:03.492Z,10.38
2023-04-17T03:27:32.669Z,10.33
2023-04-17T03:30:00.540Z,10.30
2023-04-17T03:32:28.608Z,10.29
2023-04-17T03:34:56.451Z,10.35
2023-04-17T03:37:24.153Z,10.40
2023-04-17T03:39:52.036Z,10.43
2023-04-17T03:42:19.827Z,10.50
2023-04-17T03:44:48.977Z,10.54
2023-04-17T03:47:16.777Z,10.49
2023-04-17T03:49:44.524Z,10.39
2023-04-17T03:52:12.388Z,10.51
2023-04-17T03:54:40.194Z,10.46
2023-04-17T03:57:07.919Z,10.44
2023-04-17T03:59:36.002Z,10.42
2023-04-17T04:02:05.389Z,10.39
2023-04-17T04:04:33.846Z,10.34
2023-04-17T04:07:01.948Z,10.34
2023-04-17T04:09:29.658Z,10.18
2023-04-17T04:11:57.444Z,10.20
2023-04-17T04:14:25.385Z,10.20
2023-04-17T04:16:53.262Z,10.23
2023-04-17T04:19:22.587Z,10.19
2023-04-17T04:21:50.354Z,10.15
2023-04-17T04:24:20.286Z,10.13
2023-04-17T04:26:49.678Z,10.10
2023-04-17T04:29:17.982Z,10.10
2023-04-17T04:31:46.611Z,10.06
2023-04-17T04:34:16.885Z,9.99
2023-04-17T04:36:50.060Z,10.05
2023-04-17T04:39:20.561Z,10.13
2023-04-17T04:41:48.324Z,10.13
2023-04-17T04:44:16.061Z,10.07
2023-04-17T04:46:43.851Z,10.07
2023-04-17T04:49:12.248Z,10.09
2023-04-17T04:51:40.956Z,10.13
2023-04-17T04:54:10.706Z,10.13
2023-04-17T04:56:38.548Z,10.18
2023-04-17T04:59:06.252Z,10.21
2023-04-17T05:01:34.398Z,10.23
2023-04-17T05:04:02.359Z,10.19
2023-04-17T05:06:31.251Z,10.22
2023-04-17T05:08:59.002Z,10.20
2023-04-17T05:11:28.295Z,10.27
2023-04-17T05:13:56.089Z,10.28
2023-04-17T05:16:23.963Z,10.36
2023-04-17T05:18:51.964Z,10.35
2023-04-17T05:21:19.916Z,10.36
2023-04-17T05:23:47.666Z,10.33
2023-04-17T05:26:15.524Z,10.35
2023-04-17T05:28:45.756Z,10.37
2023-04-17T05:31:13.705Z,10.35
2023-04-17T05:33:41.685Z,10.34
2023-04-17T05:36:10.368Z,10.35
2023-04-17T05:38:38.381Z,10.33
2023-04-17T05:41:07.609Z,10.39
2023-04-17T05:43:36.515Z,10.39
2023-04-17T05:46:06.348Z,10.36
2023-04-17T05:48:34.203Z,10.35
2023-04-17T05:51:02.332Z,10.37
2023-04-17T05:53:31.136Z,10.39
2023-04-17T05:55:59.185Z,10.37
2023-04-17T05:58:26.936Z,10.49
2023-04-17T06:00:54.782Z,10.55
2023-04-17T06:03:24.740Z,10.59
2023-04-17T06:05:52.827Z,10.60
2023-04-17T06:08:20.734Z,10.61
2023-04-17T06:10:50.226Z,10.53
2023-04-17T06:13:17.967Z,10.46
2023-04-17T06:15:46.086Z,10.46
2023-04-17T06:18:16.140Z,10.39
2023-04-17T06:20:45.614Z,10.41
2023-04-17T06:23:13.644Z,10.51
2023-04-17T06:25:41.461Z,10.59
2023-04-17T06:28:09.367Z,10.66
2023-04-17T06:30:37.410Z,10.65
2023-04-17T06:33:05.361Z,10.61
2023-04-17T06:35:33.914Z,10.62
2023-04-17T06:38:03.366Z,10.65
2023-04-17T06:40:31.142Z,10.66
2023-04-17T06:42:58.970Z,10.75
2023-04-17T06:45:26.843Z,10.72
2023-04-17T06:47:54.636Z,10.78
2023-04-17T06:50:23.286Z,10.78
2023-04-17T06:52:51.326Z,10.81
2023-04-17T06:55:20.823Z,10.89
2023-04-17T06:57:48.622Z,10.78
2023-04-17T07:00:18.822Z,10.80
2023-04-17T07:02:47.174Z,10.87
2023-04-17T07:05:15.033Z,11.00
2023-04-17T07:07:42.815Z,10.91
2023-04-17T07:10:11.180Z,11.01
2023-04-17T07:12:40.526Z,11.13
2023-04-17T07:15:09.500Z,11.14
2023-04-17T07:17:37.386Z,11.21
2023-04-17T07:20:07.316Z,11.30
2023-04-17T07:22:35.437Z,11.27
2023-04-17T07:25:03.874Z,11.09
2023-04-17T07:27:31.681Z,11.17
2023-04-17T07:30:00.967Z,11.31
2023-04-17T07:32:29.653Z,11.18
2023-04-17T07:34:57.393Z,11.30
2023-04-17T07:37:25.632Z,11.34
2023-04-17T07:39:54.644Z,11.26
2023-04-17T07:42:22.363Z,11.23
2023-04-17T07:44:55.207Z,11.19
2023-04-17T07:47:24.398Z,11.28
2023-04-17T07:49:52.358Z,11.28
2023-04-17T07:52:20.174Z,11.30
2023-04-17T07:54:48.098Z,11.43
2023-04-17T07:57:18.065Z,11.52
2023-04-17T07:59:46.779Z,11.49
2023-04-17T08:02:15.956Z,11.43
2023-04-17T08:04:45.630Z,11.53
2023-04-17T08:07:14.541Z,11.52
2023-04-17T08:09:43.858Z,11.58
2023-04-17T08:12:11.931Z,11.65
2023-04-17T08:14:40.771Z,11.63
2023-04-17T08:17:09.008Z,11.74
2023-04-17T08:19:36.891Z,11.87
2023-04-17T08:22:07.688Z,11.89
2023-04-17T08:24:35.653Z,12.04
2023-04-17T08:27:03.805Z,11.97
2023-04-17T08:29:31.660Z,11.91
2023-04-17T08:32:13.332Z,11.79
2023-04-17T08:34:42.846Z,11.90
2023-04-17T08:37:12.354Z,12.09
2023-04-17T08:39:40.844Z,12.25
2023-04-17T08:42:13.329Z,12.43
2023-04-17T08:44:44.878Z,12.58
2023-04-17T08:47:13.953Z,12.79
2023-04-17T08:49:44.114Z,12.89
2023-04-17T08:52:14.499Z,13.03
2023-04-17T08:54:42.401Z,13.19
2023-04-17T08:57:10.306Z,13.35
2023-04-17T08:59:38.674Z,13.38
2023-04-17T09:02:08.361Z,13.40
2023-04-17T09:04:38.305Z,13.36
2023-04-17T09:07:06.950Z,13.35
2023-04-17T09:09:52.942Z,13.49
2023-04-17T09:12:21.624Z,13.49
2023-04-17T09:14:49.551Z,13.63
2023-04-17T09:17:18.986Z,13.73
2023-04-17T09:20:06.609Z,13.78
2023-04-17T09:22:35.715Z,13.75
2023-04-17T09:25:05.875Z,13.73
2023-04-17T09:27:33.988Z,13.72
2023-04-17T09:30:04.085Z,13.82
2023-04-17T09:32:33.420Z,13.88
2023-04-17T09:35:03.700Z,13.90
2023-04-17T09:37:50.017Z,13.94
2023-04-17T09:40:20.427Z,14.04
2023-04-17T09:42:59.148Z,14.19
2023-04-17T09:45:33.352Z,14.22
2023-04-17T09:48:01.475Z,14.25
2023-04-17T09:50:29.942Z,14.40
2023-04-17T09:52:58.811Z,14.41
2023-04-17T09:55:30.212Z,14.39
2023-04-17T09:58:00.005Z,14.20
2023-04-17T10:00:29.405Z,14.24
2023-04-17T10:02:59.186Z,14.23
2023-04-17T10:05:29.291Z,14.29
2023-04-17T10:07:57.376Z,14.45
2023-04-17T10:10:30.355Z,14.60
2023-04-17T10:13:01.741Z,14.47
2023-04-17T10:15:30.819Z,14.65
2023-04-17T10:18:20.826Z,15.00
2023-04-17T10:20:50.265Z,14.91
2023-04-17T10:23:30.468Z,14.96
2023-04-17T10:26:46.597Z,15.17
2023-04-17T10:29:18.637Z,15.04
2023-04-17T10:32:26.133Z,14.69
2023-04-17T10:34:56.185Z,14.73
2023-04-17T10:38:02.970Z,14.95
2023-04-17T10:40:32.550Z,15.21
2023-04-17T10:43:05.462Z,15.25
2023-04-17T10:45:58.547Z,15.44
2023-04-17T10:48:33.299Z,15.65
2023-04-17T10:51:02.490Z,15.78
2023-04-17T10:53:44.972Z,15.86
2023-04-17T10:56:18.820Z,15.98
2023-04-17T10:59:08.152Z,16.19
2023-04-17T11:01:41.478Z,16.21
2023-04-17T11:04:11.532Z,16.19
2023-04-17T11:06:42.242Z,15.97
2023-04-17T11:09:11.892Z,15.92
2023-04-17T11:11:44.765Z,15.92
2023-04-17T11:14:16.615Z,15.94
2023-04-17T11:16:47.216Z,15.99
2023-04-17T11:19:19.911Z,15.95
2023-04-17T11:21:49.970Z,16.11
2023-04-17T11:24:23.961Z,16.25
2023-04-17T11:26:51.833Z,16.37
2023-04-17T11:29:20.890Z,16.55
2023-04-17T11:31:51.897Z,16.58
2023-04-17T11:34:20.463Z,16.71
2023-04-17T11:36:51.812Z,16.82
2023-04-17T11:39:20.299Z,16.76
2023-04-17T11:41:48.183Z,16.75
2023-04-17T11:44:18.070Z,16.34
2023-04-17T11:46:52.342Z,16.18
2023-04-17T11:49:25.451Z,16.32
2023-04-17T11:51:56.743Z,16.34
2023-04-17T11:54:28.031Z,16.24
2023-04-17T11:57:01.334Z,16.20
2023-04-17T11:59:33.421Z,16.03
2023-04-17T12:02:03.900Z,16.00
2023-04-17T12:04:35.245Z,16.10
2023-04-17T12:07:03.834Z,16.25
2023-04-17T12:09:32.669Z,16.27
2023-04-17T12:12:01.378Z,16.42
2023-04-17T12:14:29.260Z,16.64
2023-04-17T12:16:57.096Z,16.68
2023-04-17T12:19:27.972Z,16.82
2023-04-17T12:21:55.849Z,16.98
2023-04-17T12:24:25.103Z,17.00
2023-04-17T12:26:53.714Z,17.06
2023-04-17T12:29:29.471Z,16.88
2023-04-17T12:32:04.881Z,16.91
2023-04-17T12:34:34.434Z,16.91
2023-04-17T12:37:02.315Z,16.76
2023-04-17T12:39:30.143Z,16.87
2023-04-17T12:41:57.936Z,16.72
2023-04-17T12:44:25.773Z,16.98
2023-04-17T12:46:53.693Z,17.15
2023-04-17T12:49:23.740Z,17.28
2023-04-17T12:51:53.148Z,17.34
2023-04-17T12:54:21.029Z,17.27
2023-04-17T12:56:48.893Z,17.13
2023-04-17T12:59:17.871Z,17.10
2023-04-17T13:01:45.763Z,17.21
2023-04-17T13:04:14.195Z,17.35
2023-04-17T13:06:42.916Z,17.60
2023-04-17T13:09:12.465Z,17.67
2023-04-17T13:11:40.512Z,17.67
2023-04-17T13:14:09.499Z,17.71
2023-04-17T13:16:37.448Z,17.83
2023-04-17T13:19:05.430Z,17.97
2023-04-17T13:21:33.286Z,18.04
2023-04-17T13:24:01.140Z,18.09
2023-04-17T13:26:30.661Z,18.16
2023-04-17T13:28:58.476Z,18.12
2023-04-17T13:31:27.698Z,18.16
2023-04-17T13:33:55.615Z,18.30
2023-04-17T13:36:24.315Z,18.40
2023-04-17T13:38:52.126Z,18.33
2023-04-17T13:41:20.117Z,18.12
2023-04-17T13:43:49.340Z,17.81
2023-04-17T13:46:17.350Z,17.67
2023-04-17T13:48:45.308Z,17.59
2023-04-17T13:51:13.331Z,17.58
2023-04-17T13:53:41.543Z,17.58
2023-04-17T13:56:10.243Z,17.32
2023-04-17T13:58:38.287Z,17.43
2023-04-17T14:01:09.027Z,17.72
2023-04-17T14:03:40.117Z,17.95
2023-04-17T14:06:09.442Z,17.83
2023-04-17T14:08:37.575Z,17.70
2023-04-17T14:11:05.435Z,17.69
2023-04-17T14:13:39.602Z,17.54
2023-04-17T14:16:34.765Z,17.50
2023-04-17T14:19:12.516Z,17.28
2023-04-17T14:21:41.715Z,17.17
2023-04-17T14:24:09.744Z,17.15
2023-04-17T14:26:38.626Z,17.32
2023-04-17T14:29:06.631Z,17.39
2023-04-17T14:31:36.028Z,17.55
2023-04-17T14:34:04.120Z,17.71
2023-04-17T14:36:31.985Z,17.87
2023-04-17T14:39:00.213Z,17.56
2023-04-17T14:41:31.049Z,17.22
2023-04-17T14:44:00.655Z,17.02
2023-04-17T14:46:29.001Z,16.90
2023-04-17T14:48:58.668Z,16.84
2023-04-17T14:51:27.399Z,16.92
2023-04-17T14:53:56.482Z,16.99
2023-04-17T14:56:24.439Z,17.07
2023-04-17T14:58:52.414Z,17.19
2023-04-17T15:01:20.895Z,17.27
2023-04-17T15:03:49.343Z,17.36
2023-04-17T15:06:19.094Z,17.46
2023-04-17T15:08:47.208Z,17.54
2023-04-17T15:11:15.982Z,17.60
2023-04-17T15:13:44.470Z,17.55
2023-04-17T15:16:12.721Z,17.44
2023-04-17T15:18:41.020Z,17.38
2023-04-17T15:21:09.459Z,17.47
2023-04-17T15:23:38.869Z,17.50
2023-04-17T15:26:06.951Z,17.29
2023-04-17T15:28:35.234Z,16.93
2023-04-17T15:31:03.347Z,16.78
2023-04-17T15:33:31.467Z,16.79
2023-04-17T15:36:00.366Z,16.70
2023-04-17T15:38:29.041Z,16.68
2023-04-17T15:40:59.096Z,16.80
2023-04-17T15:43:27.638Z,17.03
2023-04-17T15:45:56.148Z,17.36
2023-04-17T15:48:24.526Z,17.42
2023-04-17T15:50:52.554Z,17.50
2023-04-17T15:53:20.404Z,17.42
2023-04-17T15:55:48.515Z,17.32
2023-04-17T15:58:18.013Z,17.09
2023-04-17T16:00:46.097Z,16.97
2023-04-17T16:03:14.845Z,16.84
2023-04-17T16:05:43.131Z,16.55
2023-04-17T16:08:11.311Z,16.58
2023-04-17T16:10:39.566Z,16.71
2023-04-17T16:13:07.516Z,16.91
2023-04-17T16:15:36.920Z,16.96
2023-04-17T16:18:05.421Z,16.99
2023-04-17T16:20:33.399Z,17.07
2023-04-17T16:23:01.267Z,17.02
2023-04-17T16:25:29.235Z,16.89
2023-04-17T16:27:57.167Z,16.66
2023-04-17T16:30:25.307Z,16.47
2023-04-17T16:32:57.417Z,16.42
2023-04-17T16:35:25.860Z,16.42
2023-04-17T16:37:53.823Z,16.38
2023-04-17T16:40:26.759Z,16.25
2023-04-17T16:42:54.730Z,16.27
2023-04-17T16:45:22.868Z,16.36
2023-04-17T16:47:50.846Z,16.32
2023-04-17T16:50:25.661Z,16.36
2023-04-17T16:52:53.837Z,16.37
2023-04-17T16:55:21.763Z,16.40
2023-04-17T16:57:49.566Z,16.36
2023-04-17T17:00:18.432Z,16.39
2023-04-17T17:02:46.373Z,16.43
2023-04-17T17:05:15.563Z,16.37
2023-04-17T17:07:45.195Z,16.27
2023-04-17T17:10:13.075Z,16.26
2023-04-17T17:12:41.032Z,16.17
2023-04-17T17:15:09.325Z,16.16
2023-04-17T17:17:37.396Z,16.16
2023-04-17T17:20:06.381Z,16.21
2023-04-17T17:22:34.307Z,16.21
2023-04-17T17:25:04.027Z,16.19
2023-04-17T17:27:31.823Z,16.11
2023-04-17T17:30:00.459Z,16.12
2023-04-17T17:32:28.751Z,16.10
2023-04-17T17:34:58.202Z,16.03
2023-04-17T17:37:26.891Z,16.01
2023-04-17T17:39:55.138Z,15.92
2023-04-17T17:42:24.375Z,15.84
2023-04-17T17:44:52.337Z,15.73
2023-04-17T17:47:20.145Z,15.79
2023-04-17T17:49:49.450Z,15.82
2023-04-17T17:52:17.827Z,15.65
2023-04-17T17:54:45.644Z,15.67
2023-04-17T17:57:13.377Z,15.62
2023-04-17T17:59:42.742Z,15.55
2023-04-17T18:02:10.881Z,15.60
2023-04-17T18:04:38.894Z,15.56
2023-04-17T18:07:08.003Z,15.53
2023-04-17T18:09:35.843Z,15.50
2023-04-17T18:12:03.957Z,15.46
2023-04-17T18:14:31.955Z,15.44
2023-04-17T18:17:01.167Z,15.37
2023-04-17T18:19:29.090Z,15.35
2023-04-17T18:21:57.181Z,15.32
2023-04-17T18:24:25.675Z,15.23
2023-04-17T18:26:53.422Z,15.20
2023-04-17T18:29:21.155Z,15.13
2023-04-17T18:31:51.132Z,15.02
2023-04-17T18:34:23.188Z,15.02
2023-04-17T18:36:51.111Z,14.97
2023-04-17T18:39:22.368Z,14.93
2023-04-17T18:41:50.647Z,14.87
2023-04-17T18:44:24.551Z,14.86
2023-04-17T18:47:02.839Z,14.80
2023-04-17T18:49:32.107Z,14.78
2023-04-17T18:52:00.089Z,14.78
2023-04-17T18:54:27.882Z,14.69
2023-04-17T18:56:56.432Z,14.63
2023-04-17T18:59:26.148Z,14.56
2023-04-17T19:01:54.529Z,14.52
2023-04-17T19:04:22.290Z,14.51
2023-04-17T19:06:51.483Z,14.47
2023-04-17T19:09:29.961Z,14.44
2023-04-17T19:12:00.154Z,14.34
2023-04-17T19:14:28.488Z,14.34
2023-04-17T19:16:56.485Z,14.34
2023-04-17T19:19:24.378Z,14.30
2023-04-17T19:21:56.502Z,14.30
2023-04-17T19:24:24.325Z,14.30
2023-04-17T19:26:52.120Z,14.21
2023-04-17T19:29:20.063Z,14.18
2023-04-17T19:31:47.844Z,14.16
2023-04-17T19:34:15.785Z,14.13
2023-04-17T19:36:44.179Z,14.11
2023-04-17T19:39:13.761Z,14.11
2023-04-17T19:41:42.268Z,14.02
2023-04-17T19:44:11.145Z,13.99
2023-04-17T19:46:41.260Z,14.01
2023-04-17T19:49:09.545Z,14.02
2023-04-17T19:51:39.383Z,13.98
2023-04-17T19:54:07.319Z,13.90
2023-04-17T19:56:40.343Z,13.77
2023-04-17T19:59:12.563Z,13.77
2023-04-17T20:01:42.866Z,13.65
2023-04-17T20:04:11.888Z,13.66
2023-04-17T20:06:40.977Z,13.69
2023-04-17T20:09:08.999Z,13.66
2023-04-17T20:11:38.544Z,13.64
2023-04-17T20:14:06.649Z,13.56
2023-04-17T20:16:37.462Z,13.57
2023-04-17T20:19:05.313Z,13.45
2023-04-17T20:21:33.280Z,13.42
2023-04-17T20:24:01.121Z,13.41
2023-04-17T20:26:29.123Z,13.44
2023-04-17T20:28:58.398Z,13.38
2023-04-17T20:31:26.244Z,13.39
2023-04-17T20:33:54.094Z,13.36
2023-04-17T20:36:22.077Z,13.30
2023-04-17T20:39:26.779Z,13.25
2023-04-17T20:41:54.995Z,13.23
2023-04-17T20:44:24.621Z,13.23
2023-04-17T20:46:52.420Z,13.20
2023-04-17T20:49:20.252Z,13.16
2023-04-17T20:51:48.018Z,13.11
2023-04-17T20:54:15.967Z,13.10
2023-04-17T20:56:44.358Z,13.09
2023-04-17T20:59:12.218Z,13.04
2023-04-17T21:01:41.433Z,12.98
2023-04-17T21:04:11.178Z,13.02
2023-04-17T21:06:39.058Z,12.98
2023-04-17T21:09:08.658Z,12.92
2023-04-17T21:11:36.434Z,12.86
2023-04-17T21:14:04.202Z,12.82
2023-04-17T21:16:32.315Z,12.75
2023-04-17T21:19:01.589Z,12.70
2023-04-17T21:21:29.358Z,12.68
2023-04-17T21:23:57.066Z,12.61
2023-04-17T21:26:24.777Z,12.63
2023-04-17T21:28:52.760Z,12.62
2023-04-17T21:31:20.621Z,12.62
2023-04-17T21:33:48.368Z,12.58
2023-04-17T21:36:19.333Z,12.53
2023-04-17T21:38:47.058Z,12.49
2023-04-17T21:41:14.831Z,12.45
2023-04-17T21:43:42.584Z,12.41
2023-04-17T21:46:10.830Z,12.35
2023-04-17T21:48:38.620Z,12.29
2023-04-17T21:51:07.012Z,12.23
2023-04-17T21:53:37.765Z,12.26
2023-04-17T21:56:07.173Z,12.15
2023-04-17T21:58:35.252Z,12.11
2023-04-17T22:01:04.182Z,12.04
2023-04-17T22:03:32.135Z,12.05
2023-04-17T22:06:00.030Z,12.05
2023-04-17T22:08:27.961Z,11.96
2023-04-17T22:10:57.104Z,11.77
2023-04-17T22:13:24.998Z,11.84
2023-04-17T22:15:52.765Z,11.85
2023-04-17T22:18:21.962Z,11.72
2023-04-17T22:20:50.144Z,11.74
2023-04-17T22:23:17.962Z,11.71
2023-04-17T22:25:45.779Z,11.68
2023-04-17T22:28:14.955Z,11.60
2023-04-17T22:30:43.165Z,11.56
2023-04-17T22:33:10.982Z,11.45
2023-04-17T22:35:38.708Z,11.45
2023-04-17T22:38:06.472Z,11.47
2023-04-17T22:40:34.862Z,11.46
2023-04-17T22:43:02.851Z,11.38
2023-04-17T22:45:32.015Z,11.35
2023-04-17T22:47:59.858Z,11.35
2023-04-17T22:50:29.681Z,11.33
2023-04-17T22:52:57.655Z,11.35
2023-04-17T22:55:25.464Z,11.34
2023-04-17T22:57:53.234Z,11.34
2023-04-17T23:00:21.100Z,11.31
2023-04-17T23:02:50.413Z,11.27
2023-04-17T23:05:18.499Z,11.22
2023-04-17T23:07:46.398Z,11.20
2023-04-17T23:10:14.234Z,11.01
2023-04-17T23:12:42.029Z,11.00
2023-04-17T23:15:11.234Z,10.96
2023-04-17T23:17:39.214Z,10.89
2023-04-17T23:20:09.374Z,10.71
2023-04-17T23:22:37.246Z,10.67
2023-04-17T23:25:05.600Z,10.66
2023-04-17T23:27:33.409Z,10.68
2023-04-17T23:30:01.230Z,10.63
2023-04-17T23:32:29.183Z,10.59
2023-04-17T23:34:56.884Z,10.54
2023-04-17T23:37:26.269Z,10.55
2023-04-17T23:39:54.152Z,10.49
2023-04-17T23:42:22.373Z,10.45
2023-04-17T23:44:50.148Z,10.38
2023-04-17T23:47:22.948Z,10.34
2023-04-17T23:49:50.728Z,10.35
2023-04-17T23:52:19.387Z,10.34
2023-04-17T23:54:48.625Z,10.29
2023-04-17T23:57:16.499Z,10.26
2023-04-17T23:59:44.334Z,10.07
